sensor_id;sensor_type;location;lat;lon;timestamp;temperature;humidity
83102;SHT31;72973;51.784;4.660;2024-01-15T00:00:44;3.72;82.51
83102;SHT31;72973;51.784;4.660;2024-01-15T00:03:11;3.58;82.79
83102;SHT31;72973;51.784;4.660;2024-01-15T00:05:37;3.54;82.98
83102;SHT31;72973;51.784;4.660;2024-01-15T00:08:04;3.55;82.71
83102;SHT31;72973;51.784;4.660;2024-01-15T00:10:31;3.59;82.78
83102;SHT31;72973;51.784;4.660;2024-01-15T00:12:57;3.55;83.10
83102;SHT31;72973;51.784;4.660;2024-01-15T00:15:24;3.65;82.79
83102;SHT31;72973;51.784;4.660;2024-01-15T00:17:51;3.69;82.45
83102;SHT31;72973;51.784;4.660;2024-01-15T00:20:17;3.75;82.17
83102;SHT31;72973;51.784;4.660;2024-01-15T00:22:44;3.75;81.75
83102;SHT31;72973;51.784;4.660;2024-01-15T00:25:10;3.85;81.71
83102;SHT31;72973;51.784;4.660;2024-01-15T00:27:36;3.91;81.59
83102;SHT31;72973;51.784;4.660;2024-01-15T00:30:03;3.96;80.79
83102;SHT31;72973;51.784;4.660;2024-01-15T00:32:30;3.94;80.61
83102;SHT31;72973;51.784;4.660;2024-01-15T00:34:57;3.91;80.39
83102;SHT31;72973;51.784;4.660;2024-01-15T00:37:23;3.89;80.24
83102;SHT31;72973;51.784;4.660;2024-01-15T00:39:50;3.90;80.37
83102;SHT31;72973;51.784;4.660;2024-01-15T00:42:17;3.93;80.03
83102;SHT31;72973;51.784;4.660;2024-01-15T00:44:43;3.89;80.05
83102;SHT31;72973;51.784;4.660;2024-01-15T00:47:09;3.93;79.43
83102;SHT31;72973;51.784;4.660;2024-01-15T00:49:36;3.99;79.98
83102;SHT31;72973;51.784;4.660;2024-01-15T00:52:02;3.93;79.76
83102;SHT31;72973;51.784;4.660;2024-01-15T00:54:29;4.03;80.06
83102;SHT31;72973;51.784;4.660;2024-01-15T00:56:55;4.06;80.20
83102;SHT31;72973;51.784;4.660;2024-01-15T00:59:22;4.00;80.15
83102;SHT31;72973;51.784;4.660;2024-01-15T01:01:48;3.97;80.43
83102;SHT31;72973;51.784;4.660;2024-01-15T01:04:14;3.87;80.91
83102;SHT31;72973;51.784;4.660;2024-01-15T01:06:41;3.86;81.08
83102;SHT31;72973;51.784;4.660;2024-01-15T01:09:07;3.91;81.14
83102;SHT31;72973;51.784;4.660;2024-01-15T01:11:34;3.91;81.05
83102;SHT31;72973;51.784;4.660;2024-01-15T01:14:00;3.93;80.93
83102;SHT31;72973;51.784;4.660;2024-01-15T01:16:27;3.96;80.78
83102;SHT31;72973;51.784;4.660;2024-01-15T01:18:53;3.91;80.72
83102;SHT31;72973;51.784;4.660;2024-01-15T01:21:20;3.87;80.78
83102;SHT31;72973;51.784;4.660;2024-01-15T01:23:46;3.76;80.94
83102;SHT31;72973;51.784;4.660;2024-01-15T01:26:16;3.83;80.83
83102;SHT31;72973;51.784;4.660;2024-01-15T01:28:42;3.87;80.72
83102;SHT31;72973;51.784;4.660;2024-01-15T01:31:09;3.86;80.54
83102;SHT31;72973;51.784;4.660;2024-01-15T01:33:35;3.85;80.39
83102;SHT31;72973;51.784;4.660;2024-01-15T01:36:07;3.85;80.17
83102;SHT31;72973;51.784;4.660;2024-01-15T01:38:33;3.87;79.98
83102;SHT31;72973;51.784;4.660;2024-01-15T01:41:00;3.85;80.01
83102;SHT31;72973;51.784;4.660;2024-01-15T01:43:26;3.75;80.03
83102;SHT31;72973;51.784;4.660;2024-01-15T01:45:56;3.68;80.20
83102;SHT31;72973;51.784;4.660;2024-01-15T01:48:24;3.70;80.09
83102;SHT31;72973;51.784;4.660;2024-01-15T01:50:57;3.66;80.40
83102;SHT31;72973;51.784;4.660;2024-01-15T01:53:25;3.65;80.58
83102;SHT31;72973;51.784;4.660;2024-01-15T01:55:54;3.73;80.41
83102;SHT31;72973;51.784;4.660;2024-01-15T01:58:21;3.87;80.24
83102;SHT31;72973;51.784;4.660;2024-01-15T02:00:47;4.03;79.70
83102;SHT31;72973;51.784;4.660;2024-01-15T02:03:15;3.85;80.07
83102;SHT31;72973;51.784;4.660;2024-01-15T02:05:43;3.59;81.55
83102;SHT31;72973;51.784;4.660;2024-01-15T02:08:10;3.42;82.62
83102;SHT31;72973;51.784;4.660;2024-01-15T02:10:37;3.27;83.38
83102;SHT31;72973;51.784;4.660;2024-01-15T02:13:03;3.22;82.24
83102;SHT31;72973;51.784;4.660;2024-01-15T02:15:30;3.30;81.65
83102;SHT31;72973;51.784;4.660;2024-01-15T02:18:06;3.42;80.94
83102;SHT31;72973;51.784;4.660;2024-01-15T02:20:37;3.45;80.45
83102;SHT31;72973;51.784;4.660;2024-01-15T02:23:14;3.52;80.10
83102;SHT31;72973;51.784;4.660;2024-01-15T02:25:44;3.52;80.10
83102;SHT31;72973;51.784;4.660;2024-01-15T02:28:13;3.63;79.90
83102;SHT31;72973;51.784;4.660;2024-01-15T02:30:41;3.61;80.32
83102;SHT31;72973;51.784;4.660;2024-01-15T02:33:09;3.65;80.22
83102;SHT31;72973;51.784;4.660;2024-01-15T02:35:36;3.72;80.02
83102;SHT31;72973;51.784;4.660;2024-01-15T02:38:05;3.65;80.28
83102;SHT31;72973;51.784;4.660;2024-01-15T02:40:49;3.61;80.59
83102;SHT31;72973;51.784;4.660;2024-01-15T02:43:15;3.54;80.72
83102;SHT31;72973;51.784;4.660;2024-01-15T02:45:42;3.46;81.03
83102;SHT31;72973;51.784;4.660;2024-01-15T02:48:08;3.41;81.41
83102;SHT31;72973;51.784;4.660;2024-01-15T02:50:35;3.32;81.62
83102;SHT31;72973;51.784;4.660;2024-01-15T02:53:01;3.32;81.96
83102;SHT31;72973;51.784;4.660;2024-01-15T02:55:27;3.36;82.15
83102;SHT31;72973;51.784;4.660;2024-01-15T02:57:55;3.41;82.24
83102;SHT31;72973;51.784;4.660;2024-01-15T03:00:22;3.43;82.31
83102;SHT31;72973;51.784;4.660;2024-01-15T03:02:50;3.52;82.42
83102;SHT31;72973;51.784;4.660;2024-01-15T03:05:17;3.63;82.44
83102;SHT31;72973;51.784;4.660;2024-01-15T03:07:44;3.70;82.31
83102;SHT31;72973;51.784;4.660;2024-01-15T03:10:11;3.76;82.36
83102;SHT31;72973;51.784;4.660;2024-01-15T03:12:37;3.80;81.77
83102;SHT31;72973;51.784;4.660;2024-01-15T03:15:04;3.85;81.64
83102;SHT31;72973;51.784;4.660;2024-01-15T03:17:30;3.78;81.80
83102;SHT31;72973;51.784;4.660;2024-01-15T03:19:57;3.75;81.98
83102;SHT31;72973;51.784;4.660;2024-01-15T03:22:23;3.69;81.79
83102;SHT31;72973;51.784;4.660;2024-01-15T03:24:50;3.59;81.98
83102;SHT31;72973;51.784;4.660;2024-01-15T03:27:16;3.49;82.06
83102;SHT31;72973;51.784;4.660;2024-01-15T03:29:43;3.24;82.92
83102;SHT31;72973;51.784;4.660;2024-01-15T03:32:09;3.17;83.68
83102;SHT31;72973;51.784;4.660;2024-01-15T03:34:35;3.14;84.00
83102;SHT31;72973;51.784;4.660;2024-01-15T03:37:02;3.20;84.01
83102;SHT31;72973;51.784;4.660;2024-01-15T03:39:28;3.27;83.98
83102;SHT31;72973;51.784;4.660;2024-01-15T03:41:55;3.24;83.43
83102;SHT31;72973;51.784;4.660;2024-01-15T03:44:21;3.15;83.73
83102;SHT31;72973;51.784;4.660;2024-01-15T03:46:48;3.05;83.77
83102;SHT31;72973;51.784;4.660;2024-01-15T03:49:14;3.08;83.90
83102;SHT31;72973;51.784;4.660;2024-01-15T03:51:41;3.10;83.77
83102;SHT31;72973;51.784;4.660;2024-01-15T03:54:07;3.10;83.88
83102;SHT31;72973;51.784;4.660;2024-01-15T03:56:33;3.13;83.84
83102;SHT31;72973;51.784;4.660;2024-01-15T03:59:00;3.18;83.89
83102;SHT31;72973;51.784;4.660;2024-01-15T04:01:26;3.28;83.81
83102;SHT31;72973;51.784;4.660;2024-01-15T04:03:52;3.30;83.63
83102;SHT31;72973;51.784;4.660;2024-01-15T04:06:19;3.30;83.66
83102;SHT31;72973;51.784;4.660;2024-01-15T04:08:45;3.28;83.80
83102;SHT31;72973;51.784;4.660;2024-01-15T04:11:12;3.27;83.91
83102;SHT31;72973;51.784;4.660;2024-01-15T04:13:38;3.28;83.94
83102;SHT31;72973;51.784;4.660;2024-01-15T04:16:04;3.34;83.89
83102;SHT31;72973;51.784;4.660;2024-01-15T04:18:31;3.28;84.06
83102;SHT31;72973;51.784;4.660;2024-01-15T04:20:57;3.28;84.28
83102;SHT31;72973;51.784;4.660;2024-01-15T04:23:24;3.35;84.19
83102;SHT31;72973;51.784;4.660;2024-01-15T04:25:50;3.43;83.88
83102;SHT31;72973;51.784;4.660;2024-01-15T04:28:17;3.39;83.96
83102;SHT31;72973;51.784;4.660;2024-01-15T04:30:43;3.42;83.71
83102;SHT31;72973;51.784;4.660;2024-01-15T04:33:09;3.31;83.85
83102;SHT31;72973;51.784;4.660;2024-01-15T04:35:37;3.21;83.89
83102;SHT31;72973;51.784;4.660;2024-01-15T04:38:04;3.07;84.08
83102;SHT31;72973;51.784;4.660;2024-01-15T04:40:30;3.17;84.30
83102;SHT31;72973;51.784;4.660;2024-01-15T04:42:56;3.28;83.96
83102;SHT31;72973;51.784;4.660;2024-01-15T04:45:23;3.42;83.73
83102;SHT31;72973;51.784;4.660;2024-01-15T04:47:55;3.46;83.68
83102;SHT31;72973;51.784;4.660;2024-01-15T04:50:24;3.56;83.56
83102;SHT31;72973;51.784;4.660;2024-01-15T04:52:50;3.69;83.35
83102;SHT31;72973;51.784;4.660;2024-01-15T04:55:17;3.55;82.58
83102;SHT31;72973;51.784;4.660;2024-01-15T04:57:43;3.31;82.69
83102;SHT31;72973;51.784;4.660;2024-01-15T05:00:10;3.14;83.11
83102;SHT31;72973;51.784;4.660;2024-01-15T05:02:37;3.01;83.61
83102;SHT31;72973;51.784;4.660;2024-01-15T05:05:04;2.99;83.86
83102;SHT31;72973;51.784;4.660;2024-01-15T05:07:30;3.00;84.28
83102;SHT31;72973;51.784;4.660;2024-01-15T05:09:56;3.01;84.48
83102;SHT31;72973;51.784;4.660;2024-01-15T05:12:22;3.20;84.21
83102;SHT31;72973;51.784;4.660;2024-01-15T05:14:49;3.18;84.08
83102;SHT31;72973;51.784;4.660;2024-01-15T05:17:15;3.28;84.24
83102;SHT31;72973;51.784;4.660;2024-01-15T05:19:42;3.38;83.94
83102;SHT31;72973;51.784;4.660;2024-01-15T05:22:08;3.32;84.04
83102;SHT31;72973;51.784;4.660;2024-01-15T05:24:35;3.34;84.07
83102;SHT31;72973;51.784;4.660;2024-01-15T05:27:01;3.27;84.36
83102;SHT31;72973;51.784;4.660;2024-01-15T05:29:27;3.30;84.01
83102;SHT31;72973;51.784;4.660;2024-01-15T05:31:54;3.21;84.05
83102;SHT31;72973;51.784;4.660;2024-01-15T05:34:21;3.25;84.15
83102;SHT31;72973;51.784;4.660;2024-01-15T05:36:47;2.99;84.19
83102;SHT31;72973;51.784;4.660;2024-01-15T05:39:14;2.90;84.46
83102;SHT31;72973;51.784;4.660;2024-01-15T05:41:40;2.84;84.35
83102;SHT31;72973;51.784;4.660;2024-01-15T05:44:06;2.87;84.30
83102;SHT31;72973;51.784;4.660;2024-01-15T05:46:33;2.92;84.33
83102;SHT31;72973;51.784;4.660;2024-01-15T05:48:59;2.92;84.26
83102;SHT31;72973;51.784;4.660;2024-01-15T05:51:25;2.93;84.26
83102;SHT31;72973;51.784;4.660;2024-01-15T05:53:52;2.87;84.29
83102;SHT31;72973;51.784;4.660;2024-01-15T05:56:18;2.92;84.14
83102;SHT31;72973;51.784;4.660;2024-01-15T05:58:45;2.94;83.43
83102;SHT31;72973;51.784;4.660;2024-01-15T06:01:11;2.84;83.63
83102;SHT31;72973;51.784;4.660;2024-01-15T06:03:37;2.69;83.94
83102;SHT31;72973;51.784;4.660;2024-01-15T06:06:04;2.63;84.58
83102;SHT31;72973;51.784;4.660;2024-01-15T06:08:31;2.60;84.48
83102;SHT31;72973;51.784;4.660;2024-01-15T06:10:57;2.62;84.55
83102;SHT31;72973;51.784;4.660;2024-01-15T06:13:24;2.59;84.40
83102;SHT31;72973;51.784;4.660;2024-01-15T06:15:50;2.57;84.80
83102;SHT31;72973;51.784;4.660;2024-01-15T06:18:16;2.60;84.75
83102;SHT31;72973;51.784;4.660;2024-01-15T06:20:43;2.62;84.96
83102;SHT31;72973;51.784;4.660;2024-01-15T06:23:09;2.66;84.73
83102;SHT31;72973;51.784;4.660;2024-01-15T06:25:35;2.67;84.70
83102;SHT31;72973;51.784;4.660;2024-01-15T06:28:02;2.63;84.58
83102;SHT31;72973;51.784;4.660;2024-01-15T06:30:28;2.62;84.72
83102;SHT31;72973;51.784;4.660;2024-01-15T06:32:56;2.59;85.01
83102;SHT31;72973;51.784;4.660;2024-01-15T06:35:22;2.66;85.16
83102;SHT31;72973;51.784;4.660;2024-01-15T06:37:48;2.65;85.19
83102;SHT31;72973;51.784;4.660;2024-01-15T06:40:15;2.62;85.02
83102;SHT31;72973;51.784;4.660;2024-01-15T06:42:41;2.62;84.96
83102;SHT31;72973;51.784;4.660;2024-01-15T06:45:08;2.46;85.52
83102;SHT31;72973;51.784;4.660;2024-01-15T06:47:34;2.41;85.82
83102;SHT31;72973;51.784;4.660;2024-01-15T06:50:01;2.44;86.22
83102;SHT31;72973;51.784;4.660;2024-01-15T06:52:27;2.53;85.85
83102;SHT31;72973;51.784;4.660;2024-01-15T06:54:54;2.63;85.54
83102;SHT31;72973;51.784;4.660;2024-01-15T06:57:21;2.72;85.51
83102;SHT31;72973;51.784;4.660;2024-01-15T06:59:48;2.76;85.32
83102;SHT31;72973;51.784;4.660;2024-01-15T07:02:15;2.83;84.92
83102;SHT31;72973;51.784;4.660;2024-01-15T07:04:41;2.86;84.53
83102;SHT31;72973;51.784;4.660;2024-01-15T07:07:07;2.80;84.81
83102;SHT31;72973;51.784;4.660;2024-01-15T07:09:34;2.84;84.66
83102;SHT31;72973;51.784;4.660;2024-01-15T07:12:00;2.92;84.36
83102;SHT31;72973;51.784;4.660;2024-01-15T07:14:27;2.92;84.38
83102;SHT31;72973;51.784;4.660;2024-01-15T07:16:54;3.04;84.33
83102;SHT31;72973;51.784;4.660;2024-01-15T07:19:20;3.01;84.19
83102;SHT31;72973;51.784;4.660;2024-01-15T07:21:47;3.03;84.29
83102;SHT31;72973;51.784;4.660;2024-01-15T07:24:13;2.99;83.98
83102;SHT31;72973;51.784;4.660;2024-01-15T07:26:39;3.01;84.13
83102;SHT31;72973;51.784;4.660;2024-01-15T07:29:06;2.92;83.65
83102;SHT31;72973;51.784;4.660;2024-01-15T07:31:33;2.77;83.95
83102;SHT31;72973;51.784;4.660;2024-01-15T07:33:59;2.53;84.73
83102;SHT31;72973;51.784;4.660;2024-01-15T07:36:26;2.35;85.55
83102;SHT31;72973;51.784;4.660;2024-01-15T07:38:52;2.32;85.88
83102;SHT31;72973;51.784;4.660;2024-01-15T07:41:19;2.49;85.63
83102;SHT31;72973;51.784;4.660;2024-01-15T07:43:45;2.52;85.62
83102;SHT31;72973;51.784;4.660;2024-01-15T07:46:11;2.62;85.31
83102;SHT31;72973;51.784;4.660;2024-01-15T07:48:38;2.71;85.13
83102;SHT31;72973;51.784;4.660;2024-01-15T07:51:05;2.77;85.04
83102;SHT31;72973;51.784;4.660;2024-01-15T07:53:31;2.83;84.81
83102;SHT31;72973;51.784;4.660;2024-01-15T07:55:57;2.82;84.74
83102;SHT31;72973;51.784;4.660;2024-01-15T07:58:25;2.84;84.77
83102;SHT31;72973;51.784;4.660;2024-01-15T08:00:52;2.80;84.92
83102;SHT31;72973;51.784;4.660;2024-01-15T08:03:18;2.69;84.89
83102;SHT31;72973;51.784;4.660;2024-01-15T08:05:45;2.55;85.40
83102;SHT31;72973;51.784;4.660;2024-01-15T08:08:12;2.42;86.03
83102;SHT31;72973;51.784;4.660;2024-01-15T08:10:39;2.36;86.16
83102;SHT31;72973;51.784;4.660;2024-01-15T08:13:05;2.38;86.18
83102;SHT31;72973;51.784;4.660;2024-01-15T08:15:34;2.41;86.16
83102;SHT31;72973;51.784;4.660;2024-01-15T08:18:00;2.48;85.69
83102;SHT31;72973;51.784;4.660;2024-01-15T08:20:26;2.53;85.39
83102;SHT31;72973;51.784;4.660;2024-01-15T08:22:53;2.57;85.23
83102;SHT31;72973;51.784;4.660;2024-01-15T08:25:19;2.75;85.05
83102;SHT31;72973;51.784;4.660;2024-01-15T08:27:46;2.80;84.49
83102;SHT31;72973;51.784;4.660;2024-01-15T08:30:12;2.87;84.02
83102;SHT31;72973;51.784;4.660;2024-01-15T08:32:39;2.97;83.63
83102;SHT31;72973;51.784;4.660;2024-01-15T08:35:08;3.05;83.62
83102;SHT31;72973;51.784;4.660;2024-01-15T08:37:35;3.10;83.29
83102;SHT31;72973;51.784;4.660;2024-01-15T08:40:02;3.08;83.27
83102;SHT31;72973;51.784;4.660;2024-01-15T08:42:30;3.04;83.09
83102;SHT31;72973;51.784;4.660;2024-01-15T08:44:56;2.93;83.32
83102;SHT31;72973;51.784;4.660;2024-01-15T08:47:23;2.89;83.62
83102;SHT31;72973;51.784;4.660;2024-01-15T08:49:51;2.82;83.60
83102;SHT31;72973;51.784;4.660;2024-01-15T08:52:17;2.75;83.75
83102;SHT31;72973;51.784;4.660;2024-01-15T08:54:44;2.79;83.71
83102;SHT31;72973;51.784;4.660;2024-01-15T08:57:10;2.75;83.59
83102;SHT31;72973;51.784;4.660;2024-01-15T08:59:37;2.75;83.45
83102;SHT31;72973;51.784;4.660;2024-01-15T09:02:04;2.82;83.26
83102;SHT31;72973;51.784;4.660;2024-01-15T09:04:31;2.87;83.02
83102;SHT31;72973;51.784;4.660;2024-01-15T09:06:57;2.92;82.53
83102;SHT31;72973;51.784;4.660;2024-01-15T09:09:24;2.97;82.69
83102;SHT31;72973;51.784;4.660;2024-01-15T09:11:53;3.04;82.49
83102;SHT31;72973;51.784;4.660;2024-01-15T09:14:20;3.08;82.40
83102;SHT31;72973;51.784;4.660;2024-01-15T09:16:48;3.08;82.54
83102;SHT31;72973;51.784;4.660;2024-01-15T09:19:14;3.14;82.33
83102;SHT31;72973;51.784;4.660;2024-01-15T09:21:40;3.25;82.34
83102;SHT31;72973;51.784;4.660;2024-01-15T09:24:07;3.58;81.56
83102;SHT31;72973;51.784;4.660;2024-01-15T09:26:33;3.70;81.81
83102;SHT31;72973;51.784;4.660;2024-01-15T09:29:00;3.72;80.07
83102;SHT31;72973;51.784;4.660;2024-01-15T09:31:27;3.86;80.21
83102;SHT31;72973;51.784;4.660;2024-01-15T09:33:54;3.91;79.44
83102;SHT31;72973;51.784;4.660;2024-01-15T09:36:25;3.91;80.57
83102;SHT31;72973;51.784;4.660;2024-01-15T09:38:52;3.82;81.39
83102;SHT31;72973;51.784;4.660;2024-01-15T09:41:18;3.75;81.66
83102;SHT31;72973;51.784;4.660;2024-01-15T09:43:45;3.63;81.94
83102;SHT31;72973;51.784;4.660;2024-01-15T09:46:13;3.66;82.14
83102;SHT31;72973;51.784;4.660;2024-01-15T09:48:40;3.83;81.87
83102;SHT31;72973;51.784;4.660;2024-01-15T09:51:07;3.89;81.70
83102;SHT31;72973;51.784;4.660;2024-01-15T09:53:36;3.87;81.80
83102;SHT31;72973;51.784;4.660;2024-01-15T09:56:04;4.00;81.62
83102;SHT31;72973;51.784;4.660;2024-01-15T09:58:33;4.18;81.41
83102;SHT31;72973;51.784;4.660;2024-01-15T10:01:02;4.18;80.92
83102;SHT31;72973;51.784;4.660;2024-01-15T10:03:30;4.10;80.41
83102;SHT31;72973;51.784;4.660;2024-01-15T10:05:59;3.97;79.84
83102;SHT31;72973;51.784;4.660;2024-01-15T10:08:25;3.97;80.22
83102;SHT31;72973;51.784;4.660;2024-01-15T10:10:52;3.90;79.57
83102;SHT31;72973;51.784;4.660;2024-01-15T10:13:19;3.91;79.46
83102;SHT31;72973;51.784;4.660;2024-01-15T10:15:47;4.00;79.33
83102;SHT31;72973;51.784;4.660;2024-01-15T10:18:13;4.20;78.93
83102;SHT31;72973;51.784;4.660;2024-01-15T10:20:40;4.24;78.00
83102;SHT31;72973;51.784;4.660;2024-01-15T10:23:06;4.49;77.68
83102;SHT31;72973;51.784;4.660;2024-01-15T10:25:35;4.80;77.46
83102;SHT31;72973;51.784;4.660;2024-01-15T10:28:03;4.89;77.63
83102;SHT31;72973;51.784;4.660;2024-01-15T10:30:32;4.73;77.52
83102;SHT31;72973;51.784;4.660;2024-01-15T10:33:00;4.41;78.62
83102;SHT31;72973;51.784;4.660;2024-01-15T10:35:32;4.07;79.93
83102;SHT31;72973;51.784;4.660;2024-01-15T10:38:02;3.66;81.62
83102;SHT31;72973;51.784;4.660;2024-01-15T10:40:29;3.36;83.19
83102;SHT31;72973;51.784;4.660;2024-01-15T10:42:55;3.25;83.87
83102;SHT31;72973;51.784;4.660;2024-01-15T10:45:22;3.10;84.08
83102;SHT31;72973;51.784;4.660;2024-01-15T10:47:49;3.18;84.11
83102;SHT31;72973;51.784;4.660;2024-01-15T10:50:16;3.07;84.15
83102;SHT31;72973;51.784;4.660;2024-01-15T10:52:42;3.17;84.27
83102;SHT31;72973;51.784;4.660;2024-01-15T10:55:12;3.17;84.21
83102;SHT31;72973;51.784;4.660;2024-01-15T10:57:38;3.24;83.96
83102;SHT31;72973;51.784;4.660;2024-01-15T11:00:06;3.31;83.85
83102;SHT31;72973;51.784;4.660;2024-01-15T11:02:36;3.41;83.39
83102;SHT31;72973;51.784;4.660;2024-01-15T11:05:03;3.42;83.37
83102;SHT31;72973;51.784;4.660;2024-01-15T11:07:32;3.49;83.53
83102;SHT31;72973;51.784;4.660;2024-01-15T11:09:58;3.52;83.18
83102;SHT31;72973;51.784;4.660;2024-01-15T11:12:25;3.61;83.34
83102;SHT31;72973;51.784;4.660;2024-01-15T11:14:51;3.65;82.33
83102;SHT31;72973;51.784;4.660;2024-01-15T11:17:20;3.72;82.44
83102;SHT31;72973;51.784;4.660;2024-01-15T11:19:49;3.73;82.14
83102;SHT31;72973;51.784;4.660;2024-01-15T11:22:48;3.66;82.40
83102;SHT31;72973;51.784;4.660;2024-01-15T11:25:16;3.73;82.23
83102;SHT31;72973;51.784;4.660;2024-01-15T11:27:52;3.82;81.98
83102;SHT31;72973;51.784;4.660;2024-01-15T11:30:19;3.82;81.66
83102;SHT31;72973;51.784;4.660;2024-01-15T11:32:46;3.94;81.12
83102;SHT31;72973;51.784;4.660;2024-01-15T11:35:13;3.86;81.56
83102;SHT31;72973;51.784;4.660;2024-01-15T11:40:37;3.82;81.06
83102;SHT31;72973;51.784;4.660;2024-01-15T11:43:05;3.87;81.17
83102;SHT31;72973;51.784;4.660;2024-01-15T11:45:33;3.87;80.54
83102;SHT31;72973;51.784;4.660;2024-01-15T11:50:47;3.90;80.38
83102;SHT31;72973;51.784;4.660;2024-01-15T11:55:58;4.16;80.61
83102;SHT31;72973;51.784;4.660;2024-01-15T11:58:25;4.40;80.02
83102;SHT31;72973;51.784;4.660;2024-01-15T12:00:53;4.59;80.50
83102;SHT31;72973;51.784;4.660;2024-01-15T12:03:22;4.49;80.87
83102;SHT31;72973;51.784;4.660;2024-01-15T12:05:49;4.38;80.34
83102;SHT31;72973;51.784;4.660;2024-01-15T12:08:21;4.34;80.52
83102;SHT31;72973;51.784;4.660;2024-01-15T12:10:48;4.17;80.61
83102;SHT31;72973;51.784;4.660;2024-01-15T12:13:15;4.10;80.24
83102;SHT31;72973;51.784;4.660;2024-01-15T12:15:45;3.93;80.30
83102;SHT31;72973;51.784;4.660;2024-01-15T12:18:13;4.01;81.11
83102;SHT31;72973;51.784;4.660;2024-01-15T12:20:41;4.03;79.62
83102;SHT31;72973;51.784;4.660;2024-01-15T12:23:13;3.89;79.93
83102;SHT31;72973;51.784;4.660;2024-01-15T12:25:43;3.86;79.68
83102;SHT31;72973;51.784;4.660;2024-01-15T12:28:09;3.80;80.07
83102;SHT31;72973;51.784;4.660;2024-01-15T12:30:36;3.70;80.40
83102;SHT31;72973;51.784;4.660;2024-01-15T12:33:05;3.68;80.72
83102;SHT31;72973;51.784;4.660;2024-01-15T12:35:32;3.68;80.56
83102;SHT31;72973;51.784;4.660;2024-01-15T12:38:00;3.69;80.64
83102;SHT31;72973;51.784;4.660;2024-01-15T12:40:28;3.65;80.94
83102;SHT31;72973;51.784;4.660;2024-01-15T12:42:55;3.65;81.41
83102;SHT31;72973;51.784;4.660;2024-01-15T12:45:22;3.65;81.80
83102;SHT31;72973;51.784;4.660;2024-01-15T12:47:48;3.63;81.62
83102;SHT31;72973;51.784;4.660;2024-01-15T12:50:16;3.70;81.56
83102;SHT31;72973;51.784;4.660;2024-01-15T12:52:42;3.75;81.68
83102;SHT31;72973;51.784;4.660;2024-01-15T12:55:10;3.78;81.47
83102;SHT31;72973;51.784;4.660;2024-01-15T12:57:37;3.85;81.61
83102;SHT31;72973;51.784;4.660;2024-01-15T13:00:05;3.99;81.52
83102;SHT31;72973;51.784;4.660;2024-01-15T13:02:34;4.01;81.03
83102;SHT31;72973;51.784;4.660;2024-01-15T13:05:03;4.22;80.78
83102;SHT31;72973;51.784;4.660;2024-01-15T13:07:30;4.31;80.44
83102;SHT31;72973;51.784;4.660;2024-01-15T13:09:56;4.51;80.02
83102;SHT31;72973;51.784;4.660;2024-01-15T13:12:23;4.68;79.18
83102;SHT31;72973;51.784;4.660;2024-01-15T13:14:49;4.77;79.46
83102;SHT31;72973;51.784;4.660;2024-01-15T13:17:16;4.86;78.74
83102;SHT31;72973;51.784;4.660;2024-01-15T13:19:42;4.87;78.78
83102;SHT31;72973;51.784;4.660;2024-01-15T13:22:09;4.90;79.04
83102;SHT31;72973;51.784;4.660;2024-01-15T13:24:35;4.95;78.22
83102;SHT31;72973;51.784;4.660;2024-01-15T13:27:03;4.93;78.49
83102;SHT31;72973;51.784;4.660;2024-01-15T13:29:31;5.03;78.56
83102;SHT31;72973;51.784;4.660;2024-01-15T13:31:58;5.19;77.11
83102;SHT31;72973;51.784;4.660;2024-01-15T13:34:24;5.30;77.04
83102;SHT31;72973;51.784;4.660;2024-01-15T13:36:51;5.20;76.15
83102;SHT31;72973;51.784;4.660;2024-01-15T13:39:17;5.09;74.26
83102;SHT31;72973;51.784;4.660;2024-01-15T13:41:49;5.10;73.40
83102;SHT31;72973;51.784;4.660;2024-01-15T13:44:15;5.03;72.63
83102;SHT31;72973;51.784;4.660;2024-01-15T13:46:42;4.62;74.09
83102;SHT31;72973;51.784;4.660;2024-01-15T13:49:09;4.31;75.89
83102;SHT31;72973;51.784;4.660;2024-01-15T13:51:38;4.22;76.29
83102;SHT31;72973;51.784;4.660;2024-01-15T13:54:06;3.94;76.22
83102;SHT31;72973;51.784;4.660;2024-01-15T13:56:34;3.93;76.93
83102;SHT31;72973;51.784;4.660;2024-01-15T13:59:01;3.89;77.49
83102;SHT31;72973;51.784;4.660;2024-01-15T14:01:29;3.63;78.59
83102;SHT31;72973;51.784;4.660;2024-01-15T14:03:55;3.49;79.76
83102;SHT31;72973;51.784;4.660;2024-01-15T14:06:21;3.27;80.94
83102;SHT31;72973;51.784;4.660;2024-01-15T14:08:48;3.20;81.51
83102;SHT31;72973;51.784;4.660;2024-01-15T14:11:14;3.27;81.81
83102;SHT31;72973;51.784;4.660;2024-01-15T14:13:41;3.28;81.71
83102;SHT31;72973;51.784;4.660;2024-01-15T14:16:07;3.38;81.32
83102;SHT31;72973;51.784;4.660;2024-01-15T14:18:34;3.51;81.38
83102;SHT31;72973;51.784;4.660;2024-01-15T14:21:00;3.51;81.20
83102;SHT31;72973;51.784;4.660;2024-01-15T14:23:27;3.65;81.55
83102;SHT31;72973;51.784;4.660;2024-01-15T14:25:53;3.78;80.57
83102;SHT31;72973;51.784;4.660;2024-01-15T14:28:20;3.82;80.29
83102;SHT31;72973;51.784;4.660;2024-01-15T14:30:46;3.62;80.44
83102;SHT31;72973;51.784;4.660;2024-01-15T14:33:13;3.55;80.60
83102;SHT31;72973;51.784;4.660;2024-01-15T14:35:39;3.54;80.86
83102;SHT31;72973;51.784;4.660;2024-01-15T14:38:05;3.62;80.96
83102;SHT31;72973;51.784;4.660;2024-01-15T14:40:34;3.65;80.76
83102;SHT31;72973;51.784;4.660;2024-01-15T14:43:02;3.59;80.54
83102;SHT31;72973;51.784;4.660;2024-01-15T14:45:30;3.58;80.75
83102;SHT31;72973;51.784;4.660;2024-01-15T14:47:56;3.45;80.87
83102;SHT31;72973;51.784;4.660;2024-01-15T14:50:24;3.48;81.02
83102;SHT31;72973;51.784;4.660;2024-01-15T14:52:51;3.41;80.52
83102;SHT31;72973;51.784;4.660;2024-01-15T14:55:17;3.38;80.50
83102;SHT31;72973;51.784;4.660;2024-01-15T14:57:44;3.43;80.41
83102;SHT31;72973;51.784;4.660;2024-01-15T15:00:11;3.48;77.15
83102;SHT31;72973;51.784;4.660;2024-01-15T15:02:39;3.56;75.81
83102;SHT31;72973;51.784;4.660;2024-01-15T15:05:06;3.65;75.17
83102;SHT31;72973;51.784;4.660;2024-01-15T15:07:33;3.58;74.31
83102;SHT31;72973;51.784;4.660;2024-01-15T15:10:02;3.56;74.16
83102;SHT31;72973;51.784;4.660;2024-01-15T15:12:31;3.54;74.28
83102;SHT31;72973;51.784;4.660;2024-01-15T15:14:57;3.58;73.88
83102;SHT31;72973;51.784;4.660;2024-01-15T15:17:24;3.52;73.64
83102;SHT31;72973;51.784;4.660;2024-01-15T15:19:51;3.51;73.86
83102;SHT31;72973;51.784;4.660;2024-01-15T15:22:20;3.49;74.32
83102;SHT31;72973;51.784;4.660;2024-01-15T15:24:46;3.49;74.10
83102;SHT31;72973;51.784;4.660;2024-01-15T15:27:13;3.49;73.97
83102;SHT31;72973;51.784;4.660;2024-01-15T15:29:39;3.63;74.98
83102;SHT31;72973;51.784;4.660;2024-01-15T15:32:06;3.73;74.05
83102;SHT31;72973;51.784;4.660;2024-01-15T15:34:32;3.86;74.11
83102;SHT31;72973;51.784;4.660;2024-01-15T15:36:58;3.90;74.16
83102;SHT31;72973;51.784;4.660;2024-01-15T15:39:25;3.89;74.01
83102;SHT31;72973;51.784;4.660;2024-01-15T15:41:51;3.89;73.56
83102;SHT31;72973;51.784;4.660;2024-01-15T15:44:18;4.01;74.28
83102;SHT31;72973;51.784;4.660;2024-01-15T15:46:44;4.01;74.42
83102;SHT31;72973;51.784;4.660;2024-01-15T15:49:10;4.07;74.82
83102;SHT31;72973;51.784;4.660;2024-01-15T15:51:37;3.96;73.83